Time;durP1;ratioP1;P1;durP2;ratioP2;P2;SDS_P1;SDS_P2;PMS_P1;PMS_P2;Temp;Humidity;BMP_temperature;BMP_pressure;BME280_temperature;BME280_humidity;BME280_pressure;Samples;Min_cycle;Max_cycle;Signal;HPM_P1;HPM_P2
2023/01/17 00:12:12;;;;;;;19.87;14.00;;;;;;;8.65;69.69;93362.41;5126899;28;20694;-48
2023/01/17 00:14:39;;;;;;;19.70;14.53;;;;;;;8.66;69.64;93346.16;5126958;27;20196;-48
2023/01/17 00:17:06;;;;;;;16.63;13.30;;;;;;;8.68;69.56;93359.50;5121232;28;20422;-49
2023/01/17 01:34:22;;;;;;;19.40;13.53;;;;;;;8.61;69.31;93338.19;5090983;28;20606;-47
2023/01/17 01:36:48;;;;;;;18.63;14.27;;;;;;;8.59;69.36;93330.69;5091327;28;20197;-49
2023/01/17 01:39:17;;;;;;;19.30;12.73;;;;;;;8.60;69.33;93329.75;5090997;28;20197;-46
2023/01/17 01:41:43;;;;;;;18.17;13.33;;;;;;;8.57;69.42;93317.31;5091126;28;20196;-50
2023/01/17 01:44:44;;;;;;;17.87;12.80;;;;;;;8.61;69.22;93340.72;5090780;28;20638;-49
2023/01/17 01:47:16;;;;;;;17.43;12.90;;;;;;;8.60;69.46;93306.81;5091168;28;20192;-49
2023/01/17 01:49:43;;;;;;;21.73;13.40;;;;;;;8.61;69.37;93316.03;5091119;28;20206;-49
2023/01/17 01:52:11;;;;;;;18.13;12.80;;;;;;;8.62;69.36;93283.72;5090795;28;20219;-50
2023/01/17 01:54:44;;;;;;;17.53;12.40;;;;;;;8.62;69.36;93294.69;5090581;28;20575;-52
2023/01/17 01:57:16;;;;;;;18.80;12.97;;;;;;;8.63;69.35;93301.38;5090598;28;20619;-46
2023/01/17 01:59:48;;;;;;;16.67;12.33;;;;;;;8.65;69.17;93301.25;5090295;28;20193;-49
2023/01/17 02:02:15;;;;;;;16.30;12.10;;;;;;;8.67;69.28;93304.41;5090606;28;20236;-47
2023/01/17 02:04:44;;;;;;;17.37;12.03;;;;;;;8.69;69.27;93300.75;5090615;28;20258;-47
2023/01/17 02:07:15;;;;;;;15.97;11.47;;;;;;;8.70;69.18;93315.09;5090651;28;20197;-47
2023/01/17 02:09:43;;;;;;;18.30;12.77;;;;;;;8.63;69.21;93282.75;5090249;28;20220;-48
2023/01/17 02:12:11;;;;;;;17.37;12.17;;;;;;;8.71;69.23;93303.94;5090295;28;20221;-47
2023/01/17 02:14:37;;;;;;;15.77;12.20;;;;;;;8.70;69.11;93315.09;5089975;28;20205;-47
2023/01/17 02:17:15;;;;;;;17.03;11.83;;;;;;;8.69;69.21;93298.22;5089847;28;20216;-48
2023/01/17 02:20:21;;;;;;;15.57;11.47;;;;;;;8.71;69.22;93319.22;5090375;28;20690;-49
2023/01/17 02:23:35;;;;;;;17.23;13.10;;;;;;;8.69;69.03;93302.50;5098462;28;20203;-46
2023/01/17 02:26:29;;;;;;;18.13;12.23;;;;;;;8.67;69.25;93297.56;5087396;28;20182;-47
2023/01/17 02:29:18;;;;;;;16.23;12.57;;;;;;;8.68;69.35;93304.28;5087065;28;20185;-48
2023/01/17 02:31:51;;;;;;;17.03;12.60;;;;;;;8.69;69.19;93302.50;5087834;28;20579;-48
2023/01/17 02:34:24;;;;;;;14.67;11.47;;;;;;;8.69;69.11;93299.97;5087091;28;20209;-52
2023/01/17 02:36:56;;;;;;;16.07;11.40;;;;;;;8.66;69.44;93282.44;5087568;28;20193;-48
2023/01/17 02:39:28;;;;;;;15.73;12.30;;;;;;;8.69;69.38;93295.66;5086940;28;20190;-48
2023/01/17 02:42:00;;;;;;;16.77;12.37;;;;;;;8.71;69.24;93309.03;5087574;28;20272;-47
2023/01/17 02:44:26;;;;;;;18.60;12.53;;;;;;;8.73;68.98;93294.38;5086874;28;20336;-46
2023/01/17 02:46:56;;;;;;;15.87;11.43;;;;;;;8.74;69.03;93275.59;5086907;28;20200;-48
2023/01/17 02:49:27;;;;;;;19.57;11.97;;;;;;;8.76;68.92;93271.13;5086989;28;20902;-46
2023/01/17 02:52:11;;;;;;;17.87;12.20;;;;;;;8.64;69.22;93257.13;5087426;28;20192;-47
2023/01/17 02:55:13;;;;;;;18.77;12.43;;;;;;;8.79;69.17;93280.19;5086958;28;20767;-46
2023/01/17 02:57:54;;;;;;;17.80;11.90;;;;;;;8.80;69.17;93264.72;5046585;28;20217;-47
2023/01/17 03:00:26;;;;;;;15.37;11.73;;;;;;;8.81;69.05;93270.66;5060761;28;20205;-46
2023/01/17 03:03:02;;;;;;;15.10;11.67;;;;;;;8.80;68.99;93277.47;5066659;28;20226;-48
2023/01/17 03:05:34;;;;;;;19.00;12.93;;;;;;;8.78;69.26;93293.91;5067114;28;20747;-48
2023/01/17 03:08:02;;;;;;;16.67;12.27;;;;;;;8.79;69.13;93273.34;5066444;28;20186;-48
2023/01/17 03:10:31;;;;;;;16.73;11.10;;;;;;;8.78;69.07;93266.66;5066708;28;20276;-50
2023/01/17 03:13:01;;;;;;;15.83;11.63;;;;;;;8.76;69.26;93248.19;5066018;28;20684;-49
2023/01/17 03:15:28;;;;;;;16.87;11.97;;;;;;;8.77;69.27;93254.09;5067093;28;20526;-47
2023/01/17 03:18:01;;;;;;;17.77;13.00;;;;;;;8.74;69.24;93241.66;5066650;28;20193;-48
2023/01/17 03:20:28;;;;;;;16.83;12.93;;;;;;;8.71;69.43;93237.66;5066036;28;20183;-48
2023/01/17 03:22:55;;;;;;;15.23;12.00;;;;;;;8.71;69.35;93260.59;5066379;28;20189;-48
2023/01/17 03:25:22;;;;;;;16.07;11.30;;;;;;;8.71;69.40;93252.16;5066487;28;20318;-51
2023/01/17 03:27:49;;;;;;;16.40;12.10;;;;;;;8.67;69.29;93243.25;5065756;28;20193;-48
2023/01/17 03:30:16;;;;;;;17.70;11.60;;;;;;;8.67;69.75;93276.38;5066491;28;20963;-50
2023/01/17 03:32:43;;;;;;;17.57;12.10;;;;;;;8.65;69.69;93265.56;5066522;28;20295;-48
2023/01/17 03:35:11;;;;;;;15.77;11.50;;;;;;;8.64;69.46;93279.28;5100784;28;20666;-53
2023/01/17 03:37:38;;;;;;;16.30;12.57;;;;;;;8.63;69.76;93275.09;5109356;28;20196;-52
2023/01/17 03:40:06;;;;;;;17.73;12.60;;;;;;;8.62;69.85;93269.22;5109013;28;20566;-48
2023/01/17 03:42:33;;;;;;;18.17;12.20;;;;;;;8.60;69.81;93271.16;5109252;28;20212;-49
2023/01/17 03:44:59;;;;;;;15.57;11.70;;;;;;;8.57;69.74;93266.38;5109466;28;20665;-55
2023/01/17 03:47:26;;;;;;;15.57;11.93;;;;;;;8.60;69.73;93272.91;5109346;28;20193;-51
2023/01/17 03:49:53;;;;;;;16.00;12.17;;;;;;;8.56;69.78;93266.53;5109139;28;20236;-52
2023/01/17 03:52:21;;;;;;;16.50;11.80;;;;;;;8.61;69.93;93277.03;5109272;28;20225;-50
2023/01/17 03:54:48;;;;;;;16.37;12.20;;;;;;;8.59;69.90;93250.91;5108802;28;20667;-49
2023/01/17 03:57:15;;;;;;;16.70;12.70;;;;;;;8.61;69.66;93239.59;5101713;28;20205;-51
2023/01/17 03:59:42;;;;;;;17.70;11.07;;;;;;;8.63;69.93;93244.53;5088868;28;20217;-50
2023/01/17 04:02:09;;;;;;;16.63;11.43;;;;;;;8.64;69.80;93279.28;5088774;28;20232;-49
2023/01/17 04:04:35;;;;;;;16.07;12.00;;;;;;;8.62;70.05;93261.56;5089150;28;20182;-54
2023/01/17 04:07:02;;;;;;;17.07;11.60;;;;;;;8.65;69.84;93263.03;5088636;28;20207;-48
2023/01/17 04:09:32;;;;;;;17.23;10.90;;;;;;;8.64;69.74;93289.47;5088756;28;20280;-50
2023/01/17 04:11:59;;;;;;;14.57;11.70;;;;;;;8.64;69.76;93277.50;5088394;28;20186;-52
2023/01/17 04:14:26;;;;;;;17.30;11.60;;;;;;;8.64;69.98;93264.78;5088639;28;20225;-54
2023/01/17 04:16:53;;;;;;;17.60;11.83;;;;;;;8.66;69.90;93292.63;5088419;28;20550;-53
2023/01/17 04:19:20;;;;;;;15.67;12.10;;;;;;;8.66;70.02;93288.31;5088454;28;20186;-56
2023/01/17 04:21:47;;;;;;;17.20;12.10;;;;;;;8.68;69.95;93298.34;5088918;28;20571;-55
2023/01/17 04:24:14;;;;;;;14.67;10.70;;;;;;;8.68;69.97;93306.00;5088700;28;20505;-52
2023/01/17 04:26:42;;;;;;;14.40;10.93;;;;;;;8.70;70.13;93299.78;5088774;28;20193;-50
2023/01/17 04:29:09;;;;;;;16.43;12.40;;;;;;;8.70;70.22;93289.59;5088339;28;20723;-56
2023/01/17 04:31:35;;;;;;;15.80;11.00;;;;;;;8.70;69.84;93286.25;5088671;28;20182;-53
2023/01/17 04:34:02;;;;;;;13.77;11.17;;;;;;;8.74;69.98;93302.81;5088480;28;20226;-52
2023/01/17 04:36:29;;;;;;;15.97;10.80;;;;;;;8.73;70.06;93294.38;5088535;28;20212;-54
2023/01/17 04:38:56;;;;;;;13.13;10.53;;;;;;;8.75;70.12;93263.63;5091196;28;20643;-51
2023/01/17 04:41:23;;;;;;;16.83;12.33;;;;;;;8.74;70.07;93290.88;5112967;28;20181;-48
2023/01/17 04:43:51;;;;;;;15.60;11.00;;;;;;;8.75;70.14;93314.59;5112743;28;20196;-50
2023/01/17 04:46:18;;;;;;;14.17;10.87;;;;;;;8.76;70.10;93280.50;5113152;28;20209;-53
2023/01/17 04:48:44;;;;;;;19.80;12.00;;;;;;;8.74;70.13;93301.06;5112687;28;20692;-50
2023/01/17 04:51:11;;;;;;;15.93;11.63;;;;;;;8.76;70.21;93276.22;5112016;28;20189;-51
2023/01/17 04:53:38;;;;;;;13.27;10.33;;;;;;;8.77;70.02;93290.56;5110887;28;20570;-50
2023/01/17 04:56:05;;;;;;;15.13;10.90;;;;;;;8.78;70.37;93321.94;5091955;28;20189;-50
2023/01/17 04:58:32;;;;;;;13.67;10.87;;;;;;;8.78;70.03;93320.19;5101645;28;20193;-52
2023/01/17 05:01:03;;;;;;;14.63;10.67;;;;;;;8.78;70.33;93320.19;5112731;28;20220;-52
2023/01/17 05:03:30;;;;;;;14.50;10.93;;;;;;;8.79;70.15;93331.16;5112373;28;20224;-48
2023/01/17 05:05:57;;;;;;;14.53;10.23;;;;;;;8.80;70.07;93320.00;5112584;28;20196;-49
2023/01/17 05:08:24;;;;;;;15.40;10.97;;;;;;;8.82;70.32;93332.59;5111503;28;20185;-50
2023/01/17 05:10:51;;;;;;;13.97;10.93;;;;;;;8.81;70.14;93331.81;5112527;28;20189;-50
2023/01/17 05:13:17;;;;;;;12.33;9.33;;;;;;;8.80;70.30;93336.09;5112472;28;20205;-48
2023/01/17 05:15:45;;;;;;;13.70;10.50;;;;;;;8.79;70.36;93352.34;5112642;28;20182;-48
2023/01/17 05:18:15;;;;;;;12.20;9.47;;;;;;;8.74;70.43;93341.03;5111920;28;20193;-50
2023/01/17 05:20:42;;;;;;;13.03;10.07;;;;;;;8.80;70.28;93348.03;5106138;27;20193;-46
2023/01/17 05:23:09;;;;;;;11.97;9.73;;;;;;;8.80;70.27;93330.19;5093537;28;20185;-50
2023/01/17 05:25:36;;;;;;;12.63;10.00;;;;;;;8.82;70.40;93312.22;5112139;28;20193;-48
2023/01/17 05:28:04;;;;;;;14.50;10.57;;;;;;;8.78;70.60;93306.63;5098815;28;20189;-51
2023/01/17 05:30:32;;;;;;;16.33;11.17;;;;;;;8.78;70.61;93309.97;5102303;28;20683;-49
2023/01/17 05:32:59;;;;;;;13.00;10.13;;;;;;;8.77;70.52;93310.16;5091655;28;20587;-50
2023/01/17 05:35:31;;;;;;;12.97;9.97;;;;;;;8.78;70.71;93307.44;5091299;28;20671;-48
2023/01/17 05:37:58;;;;;;;14.47;9.90;;;;;;;8.78;70.60;93301.53;5092979;28;20182;-47
2023/01/17 05:40:27;;;;;;;12.67;9.70;;;;;;;8.76;70.59;93300.91;5102577;28;20204;-47
2023/01/17 05:42:56;;;;;;;12.07;9.23;;;;;;;8.79;70.63;93303.13;5111970;28;20249;-48
2023/01/17 05:45:24;;;;;;;9.83;8.43;;;;;;;8.79;70.84;93313.31;5107280;28;20596;-49
2023/01/17 05:47:53;;;;;;;12.60;9.77;;;;;;;8.79;70.67;93308.22;5102718;28;20224;-48
2023/01/17 05:50:21;;;;;;;10.63;8.40;;;;;;;8.79;70.69;93298.81;5090906;28;20197;-48
2023/01/17 05:52:51;;;;;;;10.40;9.00;;;;;;;8.79;70.83;93293.72;5093802;28;20288;-48
2023/01/17 05:55:19;;;;;;;11.67;9.30;;;;;;;8.81;70.63;93268.09;5111244;28;20570;-47
2023/01/17 05:57:46;;;;;;;14.33;8.97;;;;;;;8.94;82.95;93247.19;5111342;28;20204;-46
2023/01/17 06:00:15;;;;;;;11.97;9.47;;;;;;;9.93;100.00;93261.94;5106820;28;20189;-48
2023/01/17 06:02:42;;;;;;;14.77;8.57;;;;;;;10.98;100.00;93282.53;5092512;28;20279;-47
2023/01/17 06:05:09;;;;;;;13.97;8.43;;;;;;;11.72;100.00;93259.44;5111185;28;20216;-47
2023/01/17 06:07:36;;;;;;;11.93;8.53;;;;;;;11.94;100.00;93262.88;5095882;28;20194;-47
2023/01/17 06:10:06;;;;;;;11.40;7.90;;;;;;;11.95;98.20;93267.00;5091090;28;20204;-50
2023/01/17 06:12:32;;;;;;;9.00;7.57;;;;;;;11.89;94.75;93269.53;5090917;28;20189;-51
2023/01/17 06:14:59;;;;;;;8.77;6.87;;;;;;;11.79;90.84;93249.28;5090764;28;20228;-48
2023/01/17 06:17:26;;;;;;;10.73;7.73;;;;;;;11.68;86.96;93263.34;5090710;28;20197;-48
2023/01/17 06:19:53;;;;;;;12.03;6.77;;;;;;;11.60;84.87;93244.72;5090852;28;20194;-50
2023/01/17 06:22:20;;;;;;;11.83;7.67;;;;;;;11.54;83.25;93223.22;5091828;28;20630;-48
2023/01/17 06:24:47;;;;;;;10.03;8.17;;;;;;;11.47;82.25;93237.69;5090623;28;20190;-48
2023/01/17 06:27:15;;;;;;;11.53;8.03;;;;;;;11.41;81.61;93254.56;5090513;28;20244;-48
2023/01/17 06:29:42;;;;;;;11.77;7.90;;;;;;;11.33;80.88;93261.53;5096061;28;20279;-47
2023/01/17 06:32:08;;;;;;;11.17;7.93;;;;;;;11.32;80.78;93273.53;5091270;28;20189;-48
2023/01/17 06:34:37;;;;;;;12.70;9.23;;;;;;;11.32;80.10;93283.00;5071676;28;20222;-47
2023/01/17 06:37:04;;;;;;;10.83;8.17;;;;;;;11.33;79.75;93312.72;5078908;28;20201;-48
2023/01/17 06:39:30;;;;;;;12.53;9.33;;;;;;;11.31;79.66;93300.09;5087668;28;20675;-46
2023/01/17 06:41:58;;;;;;;17.90;10.70;;;;;;;11.35;79.12;93305.66;5089326;28;20197;-49
2023/01/17 06:44:26;;;;;;;31.30;9.93;;;;;;;11.41;78.55;93323.66;5089075;28;20190;-45
2023/01/17 06:46:53;;;;;;;13.37;10.43;;;;;;;11.45;77.92;93295.97;5089292;28;20650;-47
2023/01/17 06:49:20;;;;;;;12.87;10.40;;;;;;;11.51;77.84;93325.97;5088772;28;20246;-47
2023/01/17 06:51:47;;;;;;;16.47;11.07;;;;;;;11.59;77.20;93290.03;5090236;28;20197;-48
2023/01/17 06:54:14;;;;;;;12.63;10.03;;;;;;;11.66;76.80;93288.34;5088629;28;20610;-48
2023/01/17 06:56:41;;;;;;;12.97;10.50;;;;;;;11.78;76.02;93297.13;5090060;28;20189;-47
2023/01/17 06:59:08;;;;;;;13.27;9.57;;;;;;;11.89;75.61;93305.38;5088625;28;20182;-47
2023/01/17 07:01:36;;;;;;;15.33;9.63;;;;;;;11.97;75.17;93306.06;5088622;28;20182;-47
2023/01/17 07:04:04;;;;;;;12.23;9.67;;;;;;;12.03;74.95;93313.03;5088360;28;20667;-52
2023/01/17 07:06:31;;;;;;;9.50;7.90;;;;;;;12.05;74.68;93298.28;5088474;28;20189;-47
2023/01/17 07:08:57;;;;;;;10.27;8.17;;;;;;;12.21;74.33;93317.75;5088391;28;20197;-47
2023/01/17 07:11:26;;;;;;;12.07;8.57;;;;;;;12.27;73.87;93304.22;5089361;28;20184;-51
2023/01/17 07:13:53;;;;;;;10.23;7.50;;;;;;;12.34;73.52;93319.66;5088892;28;20706;-47
2023/01/17 07:16:20;;;;;;;10.47;8.57;;;;;;;12.36;73.11;93288.72;5088968;28;20190;-48
2023/01/17 07:18:50;;;;;;;11.93;8.27;;;;;;;12.44;72.83;93286.03;5088351;28;20574;-49
2023/01/17 07:21:16;;;;;;;11.13;8.47;;;;;;;12.60;72.40;93302.94;5089044;28;20282;-48
2023/01/17 07:23:43;;;;;;;13.87;8.63;;;;;;;12.73;71.94;93297.91;5088845;28;20553;-48
2023/01/17 07:26:10;;;;;;;10.97;7.90;;;;;;;12.86;71.71;93286.97;5088609;28;20216;-50
2023/01/17 07:28:37;;;;;;;9.50;7.37;;;;;;;12.99;71.32;93297.31;5088635;28;20197;-47
2023/01/17 07:31:08;;;;;;;10.07;8.07;;;;;;;13.09;71.18;93291.88;5088567;28;20188;-47
2023/01/17 07:33:35;;;;;;;10.23;7.53;;;;;;;13.23;70.67;93299.50;5090264;28;20213;-49
2023/01/17 07:36:06;;;;;;;11.37;8.50;;;;;;;13.35;70.29;93297.22;5088459;28;20211;-48
2023/01/17 07:38:33;;;;;;;8.07;7.27;;;;;;;13.49;70.14;93313.47;5088874;28;20190;-46
2023/01/17 07:41:00;;;;;;;9.73;7.53;;;;;;;13.66;69.82;93294.19;5088070;28;20671;-48
2023/01/17 07:43:27;;;;;;;7.03;5.93;;;;;;;13.87;69.44;93277.88;5089487;28;20186;-45
2023/01/17 07:45:54;;;;;;;7.00;6.30;;;;;;;14.13;69.05;93278.94;5088375;28;20193;-47
2023/01/17 07:48:23;;;;;;;6.73;6.03;;;;;;;14.38;68.75;93284.31;5090033;28;20647;-48
2023/01/17 07:50:54;;;;;;;7.90;5.53;;;;;;;14.66;68.19;93279.06;5087984;28;20209;-48
2023/01/17 07:53:25;;;;;;;5.50;5.00;;;;;;;14.91;67.43;93289.56;5085161;28;20706;-51
2023/01/17 07:55:52;;;;;;;7.87;5.37;;;;;;;15.13;66.99;93283.19;5085155;28;20217;-49
2023/01/17 07:58:19;;;;;;;7.87;5.00;;;;;;;15.32;66.92;93284.16;5087840;28;20193;-49
2023/01/17 08:00:46;;;;;;;6.83;4.83;;;;;;;15.46;66.56;93290.09;5087533;28;20194;-50
2023/01/17 08:03:15;;;;;;;5.50;4.67;;;;;;;15.56;66.05;93295.59;5088637;28;20237;-47
2023/01/17 08:05:43;;;;;;;4.90;4.10;;;;;;;15.68;65.84;93294.03;5087937;28;20200;-47
2023/01/17 08:08:10;;;;;;;5.63;4.80;;;;;;;15.74;65.52;93298.34;5087809;28;20201;-47
2023/01/17 08:10:38;;;;;;;4.47;4.07;;;;;;;15.83;65.32;93298.13;5087568;28;20226;-46
2023/01/17 08:13:04;;;;;;;5.50;4.10;;;;;;;15.92;64.89;93292.53;5087995;28;20193;-47
2023/01/17 08:15:31;;;;;;;6.37;4.47;;;;;;;16.03;64.88;93304.78;5092142;28;20201;-49
2023/01/17 08:17:59;;;;;;;4.33;3.87;;;;;;;16.11;64.54;93301.19;5091996;28;20228;-51
2023/01/17 08:20:26;;;;;;;4.30;3.90;;;;;;;16.16;64.38;93298.78;5091750;28;20738;-47
2023/01/17 08:22:54;;;;;;;4.57;3.70;;;;;;;16.30;63.93;93297.72;5092184;28;20189;-47
2023/01/17 08:25:22;;;;;;;3.53;3.23;;;;;;;16.45;63.58;93335.34;5091969;28;20216;-47
2023/01/17 08:27:50;;;;;;;4.43;3.33;;;;;;;16.52;63.21;93311.09;5091659;28;20216;-47
2023/01/17 08:30:18;;;;;;;3.57;3.27;;;;;;;16.58;62.87;93340.44;5089954;28;20204;-49
2023/01/17 08:32:44;;;;;;;3.73;2.77;;;;;;;16.64;62.53;93303.47;5091433;28;20217;-47
2023/01/17 08:35:11;;;;;;;2.97;2.60;;;;;;;16.70;62.33;93307.00;5091377;28;20614;-47
2023/01/17 08:37:38;;;;;;;3.97;3.07;;;;;;;16.87;61.83;93315.06;5091615;28;20189;-48
2023/01/17 08:40:07;;;;;;;4.07;3.13;;;;;;;16.94;61.37;93308.06;5092188;28;20178;-48
2023/01/17 08:42:38;;;;;;;3.17;2.87;;;;;;;17.04;61.12;93316.91;5091424;28;20634;-48
2023/01/17 08:45:08;;;;;;;3.10;2.80;;;;;;;17.11;60.84;93306.53;5091255;28;20663;-49
2023/01/17 08:47:35;;;;;;;3.17;2.73;;;;;;;17.15;60.76;93325.00;5091344;28;20190;-46
2023/01/17 08:50:03;;;;;;;3.97;3.33;;;;;;;17.20;60.52;93325.94;5091217;28;20190;-46
2023/01/17 08:52:29;;;;;;;3.40;3.07;;;;;;;17.26;60.54;93306.19;5091538;28;20186;-48
2023/01/17 08:54:56;;;;;;;2.50;2.30;;;;;;;17.30;60.21;93286.69;5091252;28;20216;-47
2023/01/17 08:57:23;;;;;;;3.87;2.47;;;;;;;17.32;60.07;93289.06;5091397;28;20197;-48
2023/01/17 08:59:50;;;;;;;2.80;2.40;;;;;;;17.34;59.95;93302.56;5091095;28;20620;-47
2023/01/17 09:02:20;;;;;;;2.77;2.57;;;;;;;17.34;59.88;93302.56;5091268;28;20221;-49
2023/01/17 09:04:48;;;;;;;2.80;2.60;;;;;;;17.34;59.80;93289.63;5091205;28;20214;-49
2023/01/17 09:07:16;;;;;;;2.33;2.13;;;;;;;17.31;59.58;93277.91;5090999;28;20219;-47
2023/01/17 09:09:43;;;;;;;2.40;2.20;;;;;;;17.37;59.56;93292.59;5091294;28;20205;-48
2023/01/17 09:12:10;;;;;;;4.13;2.40;;;;;;;17.36;59.51;93301.34;5090899;28;20208;-47
2023/01/17 09:14:37;;;;;;;8.27;2.63;;;;;;;17.43;59.23;93288.34;5089954;28;20620;-47
2023/01/17 09:17:05;;;;;;;2.33;2.13;;;;;;;17.46;59.10;93298.28;5090794;28;20225;-47
2023/01/17 09:19:34;;;;;;;3.03;2.00;;;;;;;17.48;58.85;93291.09;5090545;28;20651;-50
2023/01/17 09:22:01;;;;;;;2.23;2.03;;;;;;;17.49;58.63;93282.34;5090454;28;20197;-48
2023/01/17 09:24:29;;;;;;;3.20;2.30;;;;;;;17.54;58.37;93292.81;5089616;28;20186;-50
2023/01/17 09:26:56;;;;;;;3.00;2.07;;;;;;;17.58;58.28;93255.19;5090798;28;20213;-47
2023/01/17 09:29:23;;;;;;;2.80;2.07;;;;;;;17.60;58.23;93289.38;5090196;28;20193;-47
2023/01/17 09:31:50;;;;;;;2.10;2.00;;;;;;;17.63;57.94;93281.19;5090886;28;20196;-48
2023/01/17 09:34:18;;;;;;;3.23;2.50;;;;;;;17.66;57.80;93290.28;5090776;28;20220;-49
2023/01/17 09:36:46;;;;;;;2.10;1.90;;;;;;;17.69;57.50;93264.03;5091228;28;20215;-48
2023/01/17 09:39:14;;;;;;;3.00;2.70;;;;;;;17.71;57.60;93254.28;5090775;28;20189;-49
2023/01/17 09:41:47;;;;;;;3.33;2.17;;;;;;;17.73;57.50;93247.06;5090648;28;20204;-48
2023/01/17 09:44:24;;;;;;;2.00;1.90;;;;;;;17.73;57.33;93270.34;5090402;28;20698;-47
2023/01/17 09:46:54;;;;;;;2.07;1.87;;;;;;;17.75;57.35;93278.72;5090773;28;20220;-51
2023/01/17 09:49:32;;;;;;;2.47;2.10;;;;;;;17.76;57.26;93269.94;5091072;28;20236;-48
2023/01/17 09:52:01;;;;;;;1.93;1.83;;;;;;;17.76;57.16;93283.66;5088910;28;20193;-48
2023/01/17 09:54:34;;;;;;;3.00;1.80;;;;;;;17.76;57.09;93286.25;5090076;28;20209;-49
2023/01/17 09:57:05;;;;;;;2.30;2.10;;;;;;;17.77;56.94;93295.56;5089943;28;20205;-48
2023/01/17 09:59:42;;;;;;;1.83;1.73;;;;;;;17.79;57.11;93303.94;5089826;28;20216;-48
2023/01/17 10:02:31;;;;;;;2.60;1.90;;;;;;;17.80;56.91;93302.91;5089670;28;20254;-50
2023/01/17 10:05:16;;;;;;;2.03;1.73;;;;;;;17.84;56.89;93312.84;5087803;28;20632;-48
2023/01/17 10:07:59;;;;;;;1.97;1.87;;;;;;;17.83;56.81;93304.25;5087303;28;20250;-50
2023/01/17 10:10:37;;;;;;;3.33;2.00;;;;;;;17.80;56.86;93295.16;5085063;28;20189;-50
2023/01/17 10:13:16;;;;;;;3.00;1.77;;;;;;;17.82;56.80;93284.59;5088123;28;20196;-47
2023/01/17 10:15:57;;;;;;;2.10;1.90;;;;;;;17.81;56.67;93293.34;5087546;28;20209;-51
2023/01/17 10:18:46;;;;;;;1.77;1.67;;;;;;;17.82;56.62;93320.78;5087384;28;20196;-50
2023/01/17 10:21:22;;;;;;;2.20;2.00;;;;;;;17.83;56.48;93322.34;5089996;28;20635;-50
2023/01/17 10:24:15;;;;;;;1.80;1.70;;;;;;;17.79;56.70;93309.09;5085199;28;20209;-49
2023/01/17 10:26:43;;;;;;;1.97;1.87;;;;;;;17.79;56.85;93303.94;5085299;28;20292;-53
2023/01/17 10:29:16;;;;;;;5.00;2.03;;;;;;;17.79;56.51;93313.47;5087109;28;20208;-50
2023/01/17 10:31:49;;;;;;;1.90;1.80;;;;;;;17.78;56.37;93314.47;5086384;28;20201;-48
2023/01/17 10:34:19;;;;;;;1.90;1.80;;;;;;;17.79;56.64;93324.63;5087327;28;20197;-49
2023/01/17 10:36:51;;;;;;;1.90;1.80;;;;;;;17.81;56.41;93337.31;5086027;28;20250;-48
2023/01/17 10:39:22;;;;;;;2.13;1.80;;;;;;;17.80;56.33;93321.00;5087424;28;20196;-51
2023/01/17 10:41:55;;;;;;;1.57;1.47;;;;;;;17.82;56.40;93304.50;5086361;28;20197;-50
2023/01/17 10:44:30;;;;;;;3.37;1.90;;;;;;;17.79;56.27;93314.28;5087317;28;20267;-50
2023/01/17 10:47:04;;;;;;;2.00;1.90;;;;;;;17.82;56.18;93320.00;5087650;28;20645;-46
2023/01/17 10:49:31;;;;;;;2.33;1.80;;;;;;;17.82;56.27;93312.25;5089017;28;20269;-49
2023/01/17 10:52:12;;;;;;;1.70;1.60;;;;;;;17.78;56.21;93312.66;5086449;28;20217;-49
2023/01/17 10:54:53;;;;;;;1.77;1.67;;;;;;;17.78;56.20;93315.25;5086689;28;20866;-50
2023/01/17 10:57:23;;;;;;;4.00;1.70;;;;;;;17.76;56.31;93329.41;5086413;28;20201;-49
2023/01/17 10:59:51;;;;;;;3.90;1.83;;;;;;;17.60;56.19;93288.59;5084473;28;20258;-47
2023/01/17 11:02:23;;;;;;;1.70;1.60;;;;;;;17.71;56.23;93290.47;5086599;28;20232;-51
2023/01/17 11:04:53;;;;;;;1.87;1.73;;;;;;;17.69;56.26;93298.41;5088615;28;20186;-50
2023/01/17 11:07:22;;;;;;;2.13;1.93;;;;;;;17.66;56.20;93324.72;5088455;28;20278;-49
2023/01/17 11:09:52;;;;;;;1.80;1.70;;;;;;;17.64;56.23;93298.28;5088997;28;20255;-50
2023/01/17 11:12:23;;;;;;;1.70;1.60;;;;;;;17.61;56.30;93285.00;5088257;28;20197;-47
2023/01/17 11:14:59;;;;;;;2.03;1.83;;;;;;;17.61;56.10;93290.94;5087880;28;20205;-49
2023/01/17 11:17:27;;;;;;;3.37;1.77;;;;;;;17.60;55.90;93275.66;5085904;28;20200;-54
2023/01/17 11:20:05;;;;;;;1.83;1.67;;;;;;;17.60;55.95;93278.25;5089828;28;20208;-48
2023/01/17 11:22:32;;;;;;;2.10;2.00;;;;;;;17.64;55.89;93281.97;5088141;28;20204;-48
2023/01/17 11:25:01;;;;;;;1.77;1.67;;;;;;;17.64;55.57;93287.16;5087923;28;20632;-54
2023/01/17 11:27:30;;;;;;;2.40;1.90;;;;;;;17.65;55.78;93260.28;5088306;28;20193;-48
2023/01/17 11:30:14;;;;;;;4.13;1.90;;;;;;;17.64;55.52;93251.75;5088062;28;20190;-51
2023/01/17 11:32:51;;;;;;;3.63;2.10;;;;;;;17.65;55.79;93257.69;5088564;28;20194;-49
2023/01/17 11:35:20;;;;;;;2.13;1.70;;;;;;;17.66;55.59;93264.44;5089272;28;20217;-52
2023/01/17 11:37:52;;;;;;;1.67;1.57;;;;;;;17.67;55.68;93248.75;5088149;28;20657;-49
2023/01/17 11:40:24;;;;;;;1.97;1.70;;;;;;;17.68;55.46;93250.31;5088417;28;20185;-49
2023/01/17 11:43:01;;;;;;;1.70;1.60;;;;;;;17.69;55.19;93228.59;5088295;28;20220;-51
2023/01/17 11:45:29;;;;;;;2.10;1.60;;;;;;;17.71;55.32;93207.72;5085079;28;20192;-50
2023/01/17 11:48:10;;;;;;;2.30;1.70;;;;;;;17.73;55.29;93205.69;5085161;28;20186;-52
2023/01/17 11:50:39;;;;;;;4.13;2.00;;;;;;;17.74;55.21;93218.44;5087954;28;20189;-47
2023/01/17 11:53:07;;;;;;;1.70;1.60;;;;;;;17.75;55.26;93214.88;5088127;28;20275;-49
2023/01/17 11:55:36;;;;;;;1.80;1.70;;;;;;;17.77;55.09;93189.56;5087577;28;20255;-49
2023/01/17 11:58:03;;;;;;;1.70;1.60;;;;;;;17.77;55.17;93225.75;5087893;28;20212;-51
2023/01/17 12:00:34;;;;;;;2.43;1.90;;;;;;;17.77;55.02;93233.53;5087755;28;20201;-50
2023/01/17 12:03:30;;;;;;;1.83;1.73;;;;;;;17.78;54.84;93182.59;5088351;28;20209;-51
2023/01/17 12:06:03;;;;;;;2.37;1.80;;;;;;;17.78;54.68;93191.13;5025660;28;20261;-49
2023/01/17 12:08:42;;;;;;;2.50;1.60;;;;;;;17.82;54.54;93211.41;5028075;28;20202;-48
2023/01/17 12:11:18;;;;;;;2.20;2.00;;;;;;;17.82;54.27;93188.91;5026010;28;20544;-50
2023/01/17 12:14:02;;;;;;;1.97;1.80;;;;;;;17.78;54.36;93198.91;5025134;28;20225;-49
2023/01/17 12:16:57;;;;;;;2.00;1.67;;;;;;;17.82;54.31;93170.03;5023628;28;20227;-49
2023/01/17 12:19:35;;;;;;;1.70;1.60;;;;;;;17.76;54.18;93167.31;5026226;28;20195;-50
2023/01/17 12:22:20;;;;;;;1.87;1.70;;;;;;;17.79;54.17;93169.47;5023717;28;20199;-51
2023/01/17 12:25:03;;;;;;;1.87;1.77;;;;;;;17.82;54.14;93170.81;5023172;28;20202;-49
2023/01/17 12:27:43;;;;;;;1.53;1.43;;;;;;;17.82;54.14;93173.41;5025146;28;20214;-48
2023/01/17 12:30:29;;;;;;;2.00;1.80;;;;;;;17.84;54.04;93157.69;5025554;28;20700;-48
2023/01/17 12:33:11;;;;;;;1.67;1.57;;;;;;;17.82;54.13;93182.94;5024723;28;20222;-49
2023/01/17 12:35:43;;;;;;;2.17;1.80;;;;;;;17.80;54.10;93144.41;5024928;28;20231;-49
2023/01/17 12:38:12;;;;;;;3.00;2.00;;;;;;;17.81;54.02;93169.22;5024609;28;20310;-47
2023/01/17 12:40:48;;;;;;;1.70;1.60;;;;;;;17.80;54.07;93158.09;5025163;28;20610;-48
2023/01/17 12:43:23;;;;;;;1.90;1.60;;;;;;;17.81;53.96;93153.72;5067849;28;20203;-46
2023/01/17 12:45:53;;;;;;;1.60;1.50;;;;;;;17.82;53.91;93151.91;5087595;28;20186;-49
2023/01/17 12:48:21;;;;;;;1.63;1.53;;;;;;;17.85;53.95;93160.03;5085588;28;20675;-47
2023/01/17 12:50:52;;;;;;;2.23;1.90;;;;;;;17.85;53.89;93165.19;5087492;28;20186;-51
2023/01/17 12:53:29;;;;;;;2.50;1.50;;;;;;;17.87;54.00;93180.50;5086165;28;20200;-49
2023/01/17 12:56:01;;;;;;;1.97;1.80;;;;;;;17.87;53.99;93124.38;5087496;28;20245;-49
2023/01/17 12:58:38;;;;;;;2.43;1.50;;;;;;;17.87;53.81;93126.19;5085108;28;20740;-48
2023/01/17 13:01:18;;;;;;;3.30;1.87;;;;;;;17.83;53.86;93118.06;5090712;28;20208;-50
2023/01/17 13:03:53;;;;;;;3.50;1.73;;;;;;;17.84;53.83;93131.81;5090661;28;20244;-49
2023/01/17 13:06:27;;;;;;;1.60;1.50;;;;;;;17.80;53.88;93157.31;5091468;28;20246;-48
2023/01/17 13:08:59;;;;;;;1.70;1.60;;;;;;;17.79;53.79;93172.06;5091170;28;20276;-48
2023/01/17 13:11:33;;;;;;;1.63;1.53;;;;;;;17.77;53.85;93166.28;5091325;28;20197;-49